createdAt,value
2019-05-17T00:01:46.935Z,4.30
2019-05-17T00:04:16.604Z,4.43
2019-05-17T00:06:47.628Z,5.05
2019-05-17T00:09:17.599Z,5.07
2019-05-17T00:11:47.318Z,5.13
2019-05-17T00:14:16.895Z,5.37
2019-05-17T00:16:46.940Z,4.80
2019-05-17T00:19:16.965Z,5.50
2019-05-17T00:21:47.552Z,6.13
2019-05-17T00:24:18.242Z,5.63
2019-05-17T00:26:47.917Z,6.00
2019-05-17T00:29:17.332Z,5.80
2019-05-17T00:31:46.514Z,6.00
2019-05-17T00:34:16.906Z,7.75
2019-05-17T00:36:46.966Z,6.25
2019-05-17T00:39:16.695Z,6.70
2019-05-17T00:41:46.956Z,7.40
2019-05-17T00:44:16.964Z,7.33
2019-05-17T00:46:46.781Z,7.27
2019-05-17T00:49:17.273Z,7.12
2019-05-17T00:51:47.423Z,7.80
2019-05-17T00:54:17.499Z,8.93
2019-05-17T00:56:46.691Z,8.47
2019-05-17T00:59:17.049Z,9.70
2019-05-17T01:01:46.834Z,8.70
2019-05-17T01:04:17.367Z,8.50
2019-05-17T01:06:47.002Z,8.97
2019-05-17T01:09:17.010Z,9.40
2019-05-17T01:11:47.375Z,8.50
2019-05-17T01:14:17.518Z,8.30
2019-05-17T01:16:47.508Z,8.77
2019-05-17T01:19:17.034Z,9.30
2019-05-17T01:21:47.512Z,9.00
2019-05-17T01:24:17.417Z,9.03
2019-05-17T01:26:46.983Z,9.63
2019-05-17T01:29:17.489Z,9.40
2019-05-17T01:31:46.902Z,9.43
2019-05-17T01:34:16.961Z,10.50
2019-05-17T01:36:46.725Z,9.93
2019-05-17T01:39:21.091Z,10.23
2019-05-17T01:41:47.568Z,10.10
2019-05-17T01:44:16.842Z,11.00
2019-05-17T01:46:46.684Z,10.70
2019-05-17T01:49:16.658Z,11.15
2019-05-17T01:51:46.869Z,10.43
2019-05-17T01:54:17.544Z,11.70
2019-05-17T01:56:46.802Z,11.27
2019-05-17T01:59:17.249Z,11.37
2019-05-17T02:01:48.282Z,11.20
2019-05-17T02:04:17.499Z,11.60
2019-05-17T02:06:46.863Z,11.93
2019-05-17T02:09:33.394Z,13.58
2019-05-17T02:11:47.450Z,12.77
2019-05-17T02:14:16.752Z,14.18
2019-05-17T02:16:46.886Z,13.62
2019-05-17T02:19:17.406Z,13.08
2019-05-17T02:21:47.874Z,12.53
2019-05-17T02:24:17.158Z,13.57
2019-05-17T02:26:47.052Z,13.03
2019-05-17T02:29:16.909Z,12.37
2019-05-17T02:31:47.440Z,12.00
2019-05-17T02:34:16.842Z,12.25
2019-05-17T02:36:46.885Z,11.28
2019-05-17T02:39:16.926Z,11.17
2019-05-17T02:41:46.895Z,10.55
2019-05-17T02:44:16.949Z,10.63
2019-05-17T02:46:46.974Z,11.10
2019-05-17T02:49:17.244Z,12.78
2019-05-17T02:51:47.007Z,13.50
2019-05-17T02:54:16.997Z,14.80
2019-05-17T02:56:47.036Z,16.30
2019-05-17T02:59:17.018Z,17.23
2019-05-17T03:01:47.060Z,17.03
2019-05-17T03:04:17.081Z,18.75
2019-05-17T03:06:47.092Z,20.17
2019-05-17T03:09:17.087Z,18.87
2019-05-17T03:11:47.106Z,17.48
2019-05-17T03:14:17.152Z,17.40
2019-05-17T03:16:47.139Z,17.00
2019-05-17T03:19:17.177Z,17.65
2019-05-17T03:21:47.441Z,17.17
2019-05-17T03:24:17.214Z,16.25
2019-05-17T03:26:47.541Z,17.12
2019-05-17T03:29:17.179Z,17.23
2019-05-17T03:31:53.500Z,16.00
2019-05-17T03:34:19.192Z,17.20
2019-05-17T03:36:48.310Z,17.77
2019-05-17T03:39:17.357Z,18.20
2019-05-17T03:41:47.365Z,17.95
2019-05-17T03:44:17.391Z,19.80
2019-05-17T03:46:47.467Z,20.40
2019-05-17T03:49:17.411Z,21.55
2019-05-17T03:51:47.395Z,22.95
2019-05-17T03:54:17.423Z,22.30
2019-05-17T03:56:47.443Z,23.35
2019-05-17T03:59:17.444Z,22.73
2019-05-17T04:01:47.489Z,23.90
2019-05-17T04:04:17.485Z,23.55
2019-05-17T04:06:47.809Z,23.22
2019-05-17T04:09:17.768Z,21.82
2019-05-17T04:11:47.783Z,23.90
2019-05-17T04:14:17.857Z,22.27
2019-05-17T04:16:47.560Z,22.82
2019-05-17T04:19:17.596Z,22.05
2019-05-17T04:21:47.603Z,21.82
2019-05-17T04:24:17.631Z,24.37
2019-05-17T04:26:47.655Z,22.90
2019-05-17T04:29:17.638Z,21.97
2019-05-17T04:31:47.703Z,22.30
2019-05-17T04:34:17.699Z,22.67
2019-05-17T04:36:47.975Z,23.02
2019-05-17T04:39:17.759Z,22.48
2019-05-17T04:41:51.062Z,21.30
2019-05-17T04:44:18.522Z,24.70
2019-05-17T04:46:47.791Z,24.35
2019-05-17T04:49:17.798Z,24.65
2019-05-17T04:51:47.833Z,23.18
2019-05-17T04:54:18.152Z,24.63
2019-05-17T04:56:47.830Z,24.40
2019-05-17T04:59:17.909Z,25.27
2019-05-17T05:01:47.919Z,23.50
2019-05-17T05:04:17.927Z,23.87
2019-05-17T05:06:48.097Z,24.17
2019-05-17T05:09:17.955Z,23.57
2019-05-17T05:11:59.641Z,22.95
2019-05-17T05:14:18.840Z,21.83
2019-05-17T05:16:47.975Z,21.20
2019-05-17T05:19:18.300Z,20.25
2019-05-17T05:21:48.032Z,19.65
2019-05-17T05:24:18.022Z,19.30
2019-05-17T05:26:48.067Z,19.73
2019-05-17T05:29:18.062Z,18.98
2019-05-17T05:31:48.096Z,19.25
2019-05-17T05:34:18.088Z,20.05
2019-05-17T05:36:48.118Z,19.73
2019-05-17T05:39:17.138Z,20.20
2019-05-17T05:41:46.183Z,20.93
2019-05-17T05:44:15.249Z,20.60
2019-05-17T05:46:44.291Z,20.43
2019-05-17T05:49:13.319Z,21.30
2019-05-17T05:51:42.631Z,21.43
2019-05-17T05:54:12.345Z,23.27
2019-05-17T05:56:42.352Z,23.13
2019-05-17T05:59:12.152Z,22.73
2019-05-17T06:01:42.223Z,21.23
2019-05-17T06:04:11.843Z,21.80
2019-05-17T06:06:41.622Z,23.67
2019-05-17T06:09:12.022Z,24.63
2019-05-17T06:11:41.829Z,22.60
2019-05-17T06:14:12.152Z,23.03
2019-05-17T06:16:42.565Z,23.83
2019-05-17T06:19:11.775Z,22.93
2019-05-17T06:21:42.682Z,22.27
2019-05-17T06:24:12.032Z,22.83
2019-05-17T06:26:42.091Z,23.07
2019-05-17T06:29:11.929Z,21.73
2019-05-17T06:31:43.342Z,21.93
2019-05-17T06:34:11.780Z,19.50
2019-05-17T06:36:42.348Z,20.50
2019-05-17T06:39:11.820Z,20.57
2019-05-17T06:41:41.940Z,22.00
2019-05-17T06:44:12.229Z,21.77
2019-05-17T06:46:41.811Z,24.07
2019-05-17T06:49:11.737Z,23.50
2019-05-17T06:51:42.610Z,27.53
2019-05-17T06:54:12.123Z,26.57
2019-05-17T06:56:41.921Z,25.77
2019-05-17T06:59:11.308Z,24.27
2019-05-17T07:01:40.959Z,23.00
2019-05-17T07:04:10.381Z,22.60
2019-05-17T07:06:40.451Z,22.90
2019-05-17T07:09:10.173Z,21.40
2019-05-17T07:11:39.974Z,19.80
2019-05-17T07:14:09.529Z,20.90
2019-05-17T07:16:39.697Z,18.90
2019-05-17T07:19:10.378Z,19.40
2019-05-17T07:21:40.362Z,19.70
2019-05-17T07:24:10.140Z,20.07
2019-05-17T07:26:39.481Z,20.40
2019-05-17T07:29:10.054Z,18.87
2019-05-17T07:31:40.488Z,19.00
2019-05-17T07:34:09.947Z,17.43
2019-05-17T07:36:39.773Z,15.50
2019-05-17T07:39:10.740Z,16.10
2019-05-17T07:41:40.203Z,14.70
2019-05-17T07:44:10.035Z,17.23
2019-05-17T07:46:40.201Z,17.67
2019-05-17T07:49:10.866Z,18.40
2019-05-17T07:51:40.133Z,18.85
2019-05-17T07:54:10.447Z,20.63
2019-05-17T07:56:40.161Z,19.60
2019-05-17T07:59:09.653Z,20.70
2019-05-17T08:01:41.047Z,22.77
2019-05-17T08:04:09.983Z,21.00
2019-05-17T08:06:40.343Z,23.27
2019-05-17T08:09:13.900Z,21.30
2019-05-17T08:11:40.327Z,21.47
2019-05-17T08:14:10.513Z,20.40
2019-05-17T08:16:39.711Z,21.30
2019-05-17T08:19:09.723Z,20.00
2019-05-17T08:21:39.857Z,21.13
2019-05-17T08:24:10.475Z,22.70
2019-05-17T08:26:40.502Z,23.43
2019-05-17T08:29:13.288Z,25.50
2019-05-17T08:31:46.769Z,23.17
2019-05-17T08:34:19.729Z,21.90
2019-05-17T08:36:55.093Z,22.30
2019-05-17T08:39:30.150Z,21.10
2019-05-17T08:42:02.409Z,22.20
2019-05-17T08:44:34.815Z,20.10
2019-05-17T08:47:07.594Z,21.67
2019-05-17T08:49:42.215Z,20.80
2019-05-17T08:52:14.988Z,20.30
2019-05-17T08:54:49.590Z,20.10
2019-05-17T08:57:22.481Z,21.70
2019-05-17T08:59:55.192Z,22.30
2019-05-17T09:02:29.902Z,22.00
2019-05-17T09:05:03.501Z,20.70
2019-05-17T09:07:36.128Z,24.50
2019-05-17T09:10:10.065Z,23.22
2019-05-17T09:12:42.803Z,23.07
2019-05-17T09:15:16.704Z,22.90
2019-05-17T09:17:52.505Z,22.10
2019-05-17T09:20:26.697Z,22.13
2019-05-17T09:23:00.159Z,21.97
2019-05-17T09:25:33.417Z,21.77
2019-05-17T09:28:06.159Z,20.43
2019-05-17T09:30:40.452Z,22.00
2019-05-17T09:33:13.250Z,20.37
2019-05-17T09:35:45.670Z,22.00
2019-05-17T09:38:20.352Z,21.27
2019-05-17T09:40:53.230Z,20.50
2019-05-17T09:43:25.947Z,22.07
2019-05-17T09:46:01.724Z,21.20
2019-05-17T09:48:33.403Z,19.70
2019-05-17T09:51:06.187Z,21.83
2019-05-17T09:53:40.127Z,21.83
2019-05-17T09:56:12.874Z,21.63
2019-05-17T09:58:46.410Z,21.33
2019-05-17T10:01:20.821Z,21.93
2019-05-17T10:03:53.917Z,22.87
2019-05-17T10:06:26.407Z,20.90
2019-05-17T10:09:00.263Z,20.00
2019-05-17T10:11:34.303Z,21.30
2019-05-17T10:14:07.004Z,21.20
2019-05-17T10:16:39.815Z,23.30
2019-05-17T10:19:12.474Z,19.33
2019-05-17T10:21:45.201Z,18.97
2019-05-17T10:24:20.066Z,20.53
2019-05-17T10:26:53.495Z,18.93
2019-05-17T10:29:26.338Z,21.00
2019-05-17T10:31:59.886Z,21.60
2019-05-17T10:34:33.494Z,21.63
2019-05-17T10:37:10.513Z,19.95
2019-05-17T10:39:43.126Z,23.03
2019-05-17T10:42:16.482Z,21.67
2019-05-17T10:44:51.336Z,21.57
2019-05-17T10:47:23.754Z,20.83
2019-05-17T10:49:56.227Z,22.23
2019-05-17T10:52:30.484Z,21.70
2019-05-17T10:55:03.474Z,21.10
2019-05-17T10:57:37.694Z,20.10
2019-05-17T11:00:14.968Z,20.70
2019-05-17T11:02:50.278Z,19.80
2019-05-17T11:05:30.799Z,22.13
2019-05-17T11:08:10.619Z,17.73
2019-05-17T11:10:44.311Z,19.23
2019-05-17T11:13:17.937Z,19.20
2019-05-17T11:15:53.830Z,20.77
2019-05-17T11:18:27.542Z,20.17
2019-05-17T11:21:02.628Z,19.07
2019-05-17T11:23:37.319Z,20.00
2019-05-17T11:26:12.045Z,22.10
2019-05-17T11:28:45.286Z,24.03
2019-05-17T11:31:18.267Z,25.80
2019-05-17T11:33:56.104Z,26.00
2019-05-17T11:36:32.705Z,23.57
2019-05-17T11:39:08.264Z,23.50
2019-05-17T11:41:43.647Z,25.17
2019-05-17T11:44:16.394Z,24.43
2019-05-17T11:46:54.118Z,23.52
2019-05-17T11:49:26.973Z,24.17
2019-05-17T11:52:03.531Z,24.83
2019-05-17T11:54:40.578Z,24.70
2019-05-17T11:57:14.421Z,24.50
2019-05-17T11:59:53.060Z,24.13
2019-05-17T12:02:28.600Z,23.50
2019-05-17T12:05:03.187Z,24.70
2019-05-17T12:07:37.004Z,25.88
2019-05-17T12:10:12.635Z,20.50
2019-05-17T12:12:47.461Z,22.70
2019-05-17T12:15:25.525Z,22.67
2019-05-17T12:17:59.158Z,23.63
2019-05-17T12:20:33.832Z,22.80
2019-05-17T12:23:07.882Z,23.23
2019-05-17T12:25:44.414Z,21.20
2019-05-17T12:28:21.194Z,22.80
2019-05-17T12:30:58.189Z,21.53
2019-05-17T12:33:55.437Z,24.27
2019-05-17T12:36:31.104Z,23.07
2019-05-17T12:39:10.014Z,23.90
2019-05-17T12:41:46.499Z,23.60
2019-05-17T12:44:21.534Z,21.87
2019-05-17T12:46:58.595Z,24.33
2019-05-17T12:49:36.604Z,22.23
2019-05-17T12:52:11.506Z,21.93
2019-05-17T12:54:45.113Z,21.20
2019-05-17T12:57:20.515Z,20.77
2019-05-17T12:59:54.194Z,22.07
2019-05-17T13:02:30.419Z,20.87
2019-05-17T13:05:04.070Z,21.27
2019-05-17T13:07:40.453Z,20.97
2019-05-17T13:10:12.312Z,20.73
2019-05-17T13:12:47.383Z,20.30
2019-05-17T13:15:20.552Z,21.77
2019-05-17T13:17:54.156Z,22.30
2019-05-17T13:20:35.691Z,20.93
2019-05-17T13:23:16.903Z,22.13
2019-05-17T13:25:53.355Z,22.40
2019-05-17T13:28:31.107Z,22.00
2019-05-17T13:31:04.679Z,22.17
2019-05-17T13:33:37.490Z,21.60
2019-05-17T13:36:10.570Z,21.43
2019-05-17T13:38:45.259Z,19.83
2019-05-17T13:41:18.852Z,21.03
2019-05-17T13:43:53.116Z,20.03
2019-05-17T13:46:33.245Z,20.00
2019-05-17T13:49:01.996Z,17.43
2019-05-17T13:51:35.675Z,18.30
2019-05-17T13:54:10.630Z,15.57
2019-05-17T13:56:48.443Z,17.93
2019-05-17T13:59:21.790Z,18.90
2019-05-17T14:01:56.329Z,19.50
2019-05-17T14:04:29.160Z,19.40
2019-05-17T14:06:58.274Z,19.30
2019-05-17T14:09:27.323Z,17.00
2019-05-17T14:11:56.334Z,17.90
2019-05-17T14:14:25.412Z,16.43
2019-05-17T14:16:54.423Z,17.97
2019-05-17T14:19:23.471Z,18.13
2019-05-17T14:21:52.522Z,17.10
2019-05-17T14:24:21.527Z,18.93
2019-05-17T14:26:50.544Z,20.90
2019-05-17T14:29:19.578Z,18.37
2019-05-17T14:31:48.517Z,18.47
2019-05-17T14:34:17.552Z,19.00
2019-05-17T14:36:46.524Z,19.40
2019-05-17T14:39:15.562Z,19.47
2019-05-17T14:41:44.907Z,19.73
2019-05-17T14:44:13.989Z,19.10
2019-05-17T14:46:43.018Z,21.97
2019-05-17T14:49:12.051Z,18.83
2019-05-17T14:51:41.407Z,19.70
2019-05-17T14:54:10.899Z,20.27
2019-05-17T14:56:39.996Z,20.47
2019-05-17T14:59:09.036Z,21.80
2019-05-17T15:01:38.434Z,22.33
2019-05-17T15:04:07.838Z,20.50
2019-05-17T15:06:37.227Z,18.73
2019-05-17T15:09:08.416Z,19.97
2019-05-17T15:11:38.492Z,18.40
2019-05-17T15:14:07.507Z,18.13
2019-05-17T15:16:36.548Z,17.73
2019-05-17T15:19:05.574Z,16.80
2019-05-17T15:21:34.599Z,17.07
2019-05-17T15:24:03.641Z,16.40
2019-05-17T15:26:35.613Z,17.70
2019-05-17T15:29:03.781Z,17.03
2019-05-17T15:31:32.787Z,16.97
2019-05-17T15:34:01.908Z,15.70
2019-05-17T15:36:30.980Z,17.33
2019-05-17T15:39:00.023Z,16.57
2019-05-17T15:41:29.068Z,15.00
2019-05-17T15:43:58.448Z,15.00
2019-05-17T15:46:27.410Z,14.90
2019-05-17T15:48:56.707Z,14.50
2019-05-17T15:51:25.726Z,13.23
2019-05-17T15:53:54.692Z,14.17
2019-05-17T15:56:23.743Z,14.13
2019-05-17T15:58:52.772Z,13.90
2019-05-17T16:01:22.055Z,12.65
2019-05-17T16:03:52.193Z,14.10
2019-05-17T16:06:22.399Z,14.63
2019-05-17T16:08:51.998Z,15.65
2019-05-17T16:11:21.058Z,15.13
2019-05-17T16:13:50.066Z,14.90
2019-05-17T16:16:19.463Z,14.40
2019-05-17T16:18:48.742Z,14.40
2019-05-17T16:21:17.758Z,15.00
2019-05-17T16:23:47.094Z,14.07
2019-05-17T16:26:16.119Z,14.63
2019-05-17T16:28:45.079Z,14.60
2019-05-17T16:31:14.169Z,15.73
2019-05-17T16:33:43.215Z,15.87
2019-05-17T16:36:12.271Z,14.93
2019-05-17T16:38:41.306Z,15.20
2019-05-17T16:41:10.336Z,14.07
2019-05-17T16:43:39.630Z,15.37
2019-05-17T16:46:08.911Z,14.30
2019-05-17T16:48:37.874Z,14.40
2019-05-17T16:51:06.886Z,14.67
2019-05-17T16:53:35.945Z,13.47
2019-05-17T16:56:04.994Z,14.90
2019-05-17T16:58:34.323Z,13.60
2019-05-17T17:01:03.817Z,12.70
2019-05-17T17:03:43.714Z,14.70
2019-05-17T17:06:04.261Z,14.20
2019-05-17T17:08:33.386Z,13.27
2019-05-17T17:11:02.418Z,13.20
2019-05-17T17:13:33.471Z,13.30
2019-05-17T17:16:02.288Z,12.13
2019-05-17T17:18:31.288Z,12.87
2019-05-17T17:21:00.331Z,12.37
2019-05-17T17:23:29.361Z,12.13
2019-05-17T17:25:58.726Z,12.60
2019-05-17T17:28:27.895Z,11.67
2019-05-17T17:30:56.974Z,11.50
2019-05-17T17:33:26.075Z,12.53
2019-05-17T17:35:55.441Z,11.20
2019-05-17T17:38:24.479Z,13.60
2019-05-17T17:40:53.494Z,12.77
2019-05-17T17:43:22.522Z,11.60
2019-05-17T17:45:51.571Z,11.73
2019-05-17T17:48:20.614Z,13.00
2019-05-17T17:50:49.657Z,11.60
2019-05-17T17:53:18.677Z,12.40
2019-05-17T17:55:47.740Z,12.37
2019-05-17T17:58:17.539Z,12.30
2019-05-17T18:00:47.536Z,12.82
2019-05-17T18:03:17.566Z,12.85
2019-05-17T18:05:47.883Z,12.90
2019-05-17T18:08:17.628Z,13.22
2019-05-17T18:10:47.626Z,11.43
2019-05-17T18:13:17.629Z,12.70
2019-05-17T18:15:50.372Z,12.10
2019-05-17T18:18:18.474Z,14.80
2019-05-17T18:20:47.709Z,13.13
2019-05-17T18:23:22.514Z,12.98
2019-05-17T18:25:48.473Z,13.73
2019-05-17T18:28:17.720Z,14.30
2019-05-17T18:30:47.795Z,13.93
2019-05-17T18:33:17.758Z,13.98
2019-05-17T18:35:47.801Z,13.78
2019-05-17T18:38:21.212Z,14.68
2019-05-17T18:40:50.235Z,15.50
2019-05-17T18:43:19.259Z,16.00
2019-05-17T18:45:48.309Z,16.20
2019-05-17T18:48:17.850Z,18.02
2019-05-17T18:50:48.125Z,17.40
2019-05-17T18:53:17.930Z,19.52
2019-05-17T18:55:47.947Z,16.77
2019-05-17T18:58:18.221Z,20.15
2019-05-17T19:00:48.221Z,18.02
2019-05-17T19:03:17.919Z,18.10
2019-05-17T19:05:47.986Z,17.60
2019-05-17T19:08:18.168Z,18.00
2019-05-17T19:10:48.373Z,18.52
2019-05-17T19:13:18.027Z,18.98
2019-05-17T19:15:48.063Z,20.00
2019-05-17T19:18:18.003Z,21.05
2019-05-17T19:20:48.093Z,20.85
2019-05-17T19:23:18.146Z,18.75
2019-05-17T19:42:56.714Z,19.43
2019-05-17T19:48:54.766Z,19.20
2019-05-17T19:51:24.046Z,21.00
2019-05-17T19:53:53.099Z,20.03
2019-05-17T19:56:22.138Z,21.47
2019-05-17T19:58:51.155Z,21.07
2019-05-17T20:01:20.206Z,23.20
2019-05-17T20:03:49.219Z,25.23
2019-05-17T20:06:18.308Z,25.63
2019-05-17T20:08:48.318Z,24.35
2019-05-17T20:11:18.647Z,25.90
2019-05-17T20:13:48.643Z,26.27
2019-05-17T20:16:18.674Z,25.85
2019-05-17T20:18:48.413Z,26.30
2019-05-17T20:21:18.419Z,26.20
2019-05-17T20:23:48.439Z,28.30
2019-05-17T20:26:18.433Z,27.60
2019-05-17T20:28:48.699Z,27.80
2019-05-17T20:31:18.483Z,29.70
2019-05-17T20:33:48.822Z,28.45
2019-05-17T20:36:18.800Z,27.82
2019-05-17T20:38:48.812Z,28.73
2019-05-17T20:41:18.567Z,28.85
2019-05-17T20:43:48.549Z,29.52
2019-05-17T20:46:18.597Z,26.77
2019-05-17T20:48:48.741Z,28.12
2019-05-17T20:51:18.627Z,32.55
2019-05-17T20:53:48.659Z,32.53
2019-05-17T20:56:31.883Z,33.30
2019-05-17T20:58:49.410Z,31.83
2019-05-17T21:01:18.711Z,32.23
2019-05-17T21:03:48.702Z,32.88
2019-05-17T21:06:18.711Z,35.63
2019-05-17T21:08:48.747Z,33.83
2019-05-17T21:11:19.071Z,35.75
2019-05-17T21:13:48.765Z,33.92
2019-05-17T21:16:18.805Z,35.48
2019-05-17T21:18:48.802Z,36.28
2019-05-17T21:21:18.833Z,37.45
2019-05-17T21:23:48.775Z,35.00
2019-05-17T21:26:18.838Z,33.90
2019-05-17T21:28:48.882Z,33.70
2019-05-17T21:31:19.009Z,35.90
2019-05-17T21:33:48.929Z,34.00
2019-05-17T21:36:18.959Z,33.25
2019-05-17T21:38:48.938Z,34.23
2019-05-17T21:41:18.906Z,37.20
2019-05-17T21:43:49.572Z,35.20
2019-05-17T21:46:19.102Z,35.58
2019-05-17T21:48:49.008Z,36.05
2019-05-17T21:51:19.038Z,33.20
2019-05-17T21:53:49.034Z,32.42
2019-05-17T21:56:19.089Z,36.48
2019-05-17T21:58:49.171Z,36.03
2019-05-17T22:01:22.957Z,37.98
2019-05-17T22:03:51.903Z,35.70
2019-05-17T22:06:21.521Z,34.40
2019-05-17T22:08:50.564Z,32.10
2019-05-17T22:11:19.595Z,34.60
2019-05-17T22:13:49.195Z,33.15
2019-05-17T22:16:20.254Z,30.00
2019-05-17T22:18:49.423Z,30.80
2019-05-17T22:21:19.253Z,31.20
2019-05-17T22:23:49.529Z,31.00
2019-05-17T22:26:19.267Z,27.35
2019-05-17T22:28:49.290Z,29.30
2019-05-17T22:31:19.315Z,29.10
2019-05-17T22:33:49.314Z,28.90
2019-05-17T22:36:19.365Z,29.27
2019-05-17T22:38:49.352Z,28.45
2019-05-17T22:41:19.401Z,27.52
2019-05-17T22:43:49.326Z,29.95
2019-05-17T22:46:33.506Z,27.00
2019-05-17T22:48:50.231Z,28.30
2019-05-17T22:51:19.456Z,27.73
2019-05-17T22:53:48.501Z,25.70
2019-05-17T22:56:17.518Z,28.00
2019-05-17T22:58:46.540Z,28.27
2019-05-17T23:01:15.564Z,27.10
2019-05-17T23:03:44.834Z,24.67
2019-05-17T23:06:13.847Z,25.77
2019-05-17T23:08:42.878Z,27.03
2019-05-17T23:11:11.939Z,27.57
2019-05-17T23:13:41.289Z,26.07
2019-05-17T23:16:12.279Z,27.27
2019-05-17T23:18:43.604Z,26.30
2019-05-17T23:21:12.649Z,26.63
2019-05-17T23:23:41.680Z,27.93
2019-05-17T23:26:10.727Z,27.97
2019-05-17T23:28:39.767Z,30.07
2019-05-17T23:31:08.783Z,27.67
2019-05-17T23:33:37.729Z,27.87
2019-05-17T23:36:06.771Z,26.27
2019-05-17T23:38:35.798Z,28.20
2019-05-17T23:41:05.734Z,26.13
2019-05-17T23:43:34.748Z,26.20
2019-05-17T23:46:03.783Z,28.70
2019-05-17T23:48:32.799Z,25.13
2019-05-17T23:51:01.866Z,24.63
2019-05-17T23:53:30.885Z,24.73
2019-05-17T23:55:59.954Z,22.63
2019-05-17T23:58:28.968Z,22.70
